Time;durP1;ratioP1;P1;durP2;ratioP2;P2;SDS_P1;SDS_P2;PMS_P1;PMS_P2;Temp;Humidity;BMP_temperature;BMP_pressure;BME280_temperature;BME280_humidity;BME280_pressure;Samples;Min_cycle;Max_cycle;Signal;HPM_P1;HPM_P2
2021/11/03 00:00:19;;;;;;;;;17.33;13.67;;;;;12.27;70.08;99502.34;5039202;28;45342;-73
2021/11/03 00:02:45;;;;;;;;;13.00;10.00;;;;;12.25;70.40;99497.97;5039236;28;45352;-73
2021/11/03 00:05:12;;;;;;;;;11.67;11.00;;;;;12.25;70.53;99504.16;5037954;28;46033;-73
2021/11/03 00:07:37;;;;;;;;;12.67;11.67;;;;;12.21;70.29;99493.66;5021277;28;45390;-73
2021/11/03 00:10:04;;;;;;;;;16.67;12.00;;;;;12.19;70.38;99491.00;5039089;28;45498;-73
2021/11/03 00:12:29;;;;;;;;;14.33;11.00;;;;;12.23;70.47;99495.38;5039031;28;45428;-73
2021/11/03 00:14:55;;;;;;;;;17.33;12.33;;;;;12.21;70.41;99501.59;5037703;28;45392;-73
2021/11/03 00:17:20;;;;;;;;;12.00;12.00;;;;;12.21;70.50;99493.66;5038940;28;45183;-74
2021/11/03 00:19:46;;;;;;;;;17.67;15.00;;;;;12.20;70.54;99483.97;5038577;28;49278;-74
2021/11/03 00:22:12;;;;;;;;;16.67;16.33;;;;;12.18;70.38;99483.13;5038788;28;46808;-73
2021/11/03 00:24:37;;;;;;;;;17.25;14.25;;;;;12.18;70.70;99481.34;5039065;28;45219;-73
2021/11/03 00:27:03;;;;;;;;;20.25;17.00;;;;;12.17;70.82;99476.94;5038879;28;45480;-73
2021/11/03 00:29:28;;;;;;;;;19.33;17.00;;;;;12.17;70.93;99482.25;5037337;28;45731;-73
2021/11/03 00:31:54;;;;;;;;;25.25;18.50;;;;;12.15;70.74;99478.75;5038632;28;45393;-73
2021/11/03 00:34:19;;;;;;;;;20.00;17.25;;;;;12.15;70.74;99476.13;5038794;28;45909;-73
2021/11/03 00:36:45;;;;;;;;;25.50;23.50;;;;;12.12;70.82;99467.34;5037742;28;45227;-73
2021/11/03 00:39:10;;;;;;;;;19.33;18.00;;;;;12.16;70.86;99477.84;5038780;28;46273;-73
2021/11/03 00:41:35;;;;;;;;;25.00;18.67;;;;;12.15;70.91;99464.66;5038401;28;45363;-73
2021/11/03 00:44:01;;;;;;;;;28.75;19.00;;;;;12.15;70.87;99460.25;5038334;28;46181;-73
2021/11/03 00:46:26;;;;;;;;;25.50;19.00;;;;;12.15;71.09;99464.66;5037185;28;45421;-73
2021/11/03 00:48:52;;;;;;;;;24.25;20.25;;;;;12.13;70.89;99454.09;5038168;28;50252;-73
2021/11/03 00:51:17;;;;;;;;;20.00;17.33;;;;;12.14;70.97;99452.31;5038357;28;45308;-73
2021/11/03 00:53:43;;;;;;;;;23.00;20.33;;;;;12.14;70.97;99454.94;5038637;28;45310;-73
2021/11/03 00:56:08;;;;;;;;;22.00;19.33;;;;;12.13;70.96;99456.72;5038568;28;45603;-73
2021/11/03 00:58:34;;;;;;;;;18.00;17.67;;;;;12.12;70.97;99464.69;5038133;28;45539;-73
2021/11/03 01:00:59;;;;;;;;;18.00;17.00;;;;;12.12;71.08;99459.41;5038188;28;45346;-73
2021/11/03 01:03:24;;;;;;;;;17.67;13.00;;;;;12.12;71.05;99462.94;5038358;28;45629;-73
2021/11/03 01:05:50;;;;;;;;;15.67;11.67;;;;;12.11;71.19;99461.19;5038227;28;45512;-73
2021/11/03 01:08:16;;;;;;;;;14.33;13.33;;;;;12.07;71.41;99457.72;5038222;28;46625;-73
2021/11/03 01:10:45;;;;;;;;;15.33;12.00;;;;;12.12;71.27;99464.69;5038149;28;45176;-73
2021/11/03 01:13:11;;;;;;;;;13.00;10.33;;;;;12.11;71.06;99462.97;5038366;28;45351;-73
2021/11/03 01:15:37;;;;;;;;;13.33;10.00;;;;;12.13;71.16;99462.03;5038043;28;45319;-73
2021/11/03 01:18:02;;;;;;;;;13.00;11.00;;;;;12.14;71.45;99455.81;5038101;28;46093;-74
2021/11/03 01:20:28;;;;;;;;;9.67;9.67;;;;;12.14;71.19;99458.47;5037807;28;45780;-73
2021/11/03 01:22:54;;;;;;;;;10.00;10.00;;;;;12.11;71.21;99461.19;5038377;28;45846;-73
2021/11/03 01:25:19;;;;;;;;;10.33;8.00;;;;;12.16;71.33;99461.13;5037881;28;45334;-73
2021/11/03 01:27:45;;;;;;;;;14.33;10.67;;;;;12.16;71.43;99458.47;5037790;28;46572;-73
2021/11/03 01:30:12;;;;;;;;;10.00;7.67;;;;;12.16;71.21;99461.97;5037632;28;45206;-73
2021/11/03 01:32:38;;;;;;;;;9.67;9.67;;;;;12.09;71.29;99460.34;5020212;28;45273;-73
2021/11/03 01:35:05;;;;;;;;;6.67;6.67;;;;;12.14;71.28;99474.34;5037782;28;45350;-73
2021/11/03 01:37:30;;;;;;;;;11.00;9.00;;;;;12.15;71.34;99472.59;5037827;28;46820;-73
2021/11/03 01:39:56;;;;;;;;;6.33;6.33;;;;;12.15;71.46;99476.13;5037341;28;45417;-73
2021/11/03 01:42:21;;;;;;;;;8.00;8.00;;;;;12.15;71.36;99477.88;5037737;28;45325;-73
2021/11/03 01:44:46;;;;;;;;;11.67;9.67;;;;;12.15;71.23;99483.19;5037517;28;45284;-73
2021/11/03 01:47:50;;;;;;;;;10.00;9.00;;;;;12.16;71.49;99472.56;5037510;28;47126;-73
2021/11/03 01:50:26;;;;;;;;;11.33;8.67;;;;;12.13;71.50;99471.72;5036191;28;45486;-74
2021/11/03 01:53:00;;;;;;;;;10.33;7.33;;;;;12.13;71.38;99477.03;5036602;28;45462;-73
2021/11/03 01:55:25;;;;;;;;;7.67;6.00;;;;;12.18;71.38;99491.91;5037896;28;45340;-73
2021/11/03 01:58:04;;;;;;;;;9.67;8.67;;;;;12.17;71.37;99482.25;5035833;28;51788;-73
2021/11/03 02:00:31;;;;;;;;;11.67;8.67;;;;;12.15;71.29;99473.47;5036293;28;45493;-73
2021/11/03 02:03:01;;;;;;;;;6.67;6.00;;;;;12.19;71.33;99474.28;5037381;28;45475;-73
2021/11/03 02:05:27;;;;;;;;;9.67;6.00;;;;;12.19;71.30;99482.22;5036203;28;45382;-73
2021/11/03 02:07:52;;;;;;;;;10.33;8.00;;;;;12.17;71.78;99476.09;5037068;28;50474;-73
2021/11/03 02:10:18;;;;;;;;;10.33;9.00;;;;;12.16;71.44;99475.22;5019475;28;45255;-73
2021/11/03 02:12:43;;;;;;;;;10.67;8.67;;;;;12.17;71.37;99468.16;5037374;28;45222;-73
2021/11/03 02:15:08;;;;;;;;;12.33;8.33;;;;;12.16;71.30;99480.50;5037275;28;45451;-74
2021/11/03 02:17:34;;;;;;;;;10.67;8.33;;;;;12.16;71.36;99472.56;5036900;28;46084;-74
2021/11/03 02:20:00;;;;;;;;;8.33;8.00;;;;;12.10;71.53;99466.50;5035719;28;45624;-73
2021/11/03 02:23:06;;;;;;;;;15.00;11.00;;;;;12.13;71.23;99477.91;5036212;28;47003;-73
2021/11/03 02:25:35;;;;;;;;;10.00;10.00;;;;;12.07;71.20;99472.72;4975746;28;45542;-73
2021/11/03 02:28:01;;;;;;;;;11.00;11.00;;;;;12.05;71.46;99472.75;5027414;28;47400;-73
2021/11/03 02:30:26;;;;;;;;;9.67;9.33;;;;;12.05;71.68;99478.03;5035842;28;45335;-73
2021/11/03 02:32:57;;;;;;;;;9.67;9.67;;;;;12.05;71.52;99475.41;5036853;28;45260;-73
2021/11/03 02:35:22;;;;;;;;;11.67;9.67;;;;;12.06;71.40;99470.97;5037265;28;45180;-73
2021/11/03 02:37:50;;;;;;;;;11.67;11.00;;;;;12.01;71.51;99470.19;5036661;28;45739;-73
2021/11/03 02:40:45;;;;;;;;;10.00;9.00;;;;;12.05;71.38;99469.22;5037028;28;45358;-73
2021/11/03 02:43:25;;;;;;;;;9.33;9.33;;;;;12.04;71.46;99475.44;5036600;28;45491;-73
2021/11/03 02:45:55;;;;;;;;;9.67;8.67;;;;;12.02;71.48;99472.78;5036927;28;45262;-74
2021/11/03 02:48:22;;;;;;;;;10.33;10.33;;;;;12.04;71.51;99472.78;5036926;28;45563;-73
2021/11/03 02:51:04;;;;;;;;;10.00;8.67;;;;;12.02;71.44;99470.13;5036663;28;45412;-73
2021/11/03 02:53:30;;;;;;;;;10.00;10.00;;;;;12.03;71.69;99482.47;5036765;28;45357;-73
2021/11/03 02:55:55;;;;;;;;;9.00;9.00;;;;;12.03;71.57;99482.47;5036441;28;45363;-73
2021/11/03 02:58:21;;;;;;;;;10.00;9.00;;;;;12.02;71.59;99486.00;5035894;28;46243;-73
2021/11/03 03:00:46;;;;;;;;;10.67;8.00;;;;;12.04;71.81;99484.25;5036639;28;45461;-73
2021/11/03 03:03:12;;;;;;;;;10.67;9.00;;;;;12.04;71.49;99488.66;5036783;28;45317;-73
2021/11/03 03:05:37;;;;;;;;;12.67;9.33;;;;;12.04;71.68;99483.38;5036603;28;45210;-73
2021/11/03 03:08:03;;;;;;;;;9.00;7.33;;;;;12.06;71.69;99492.13;5035494;28;46520;-73
2021/11/03 03:10:28;;;;;;;;;8.00;8.00;;;;;12.05;71.71;99485.97;5036685;28;45334;-73
2021/11/03 03:12:54;;;;;;;;;6.67;6.67;;;;;12.05;71.83;99493.03;5036707;28;45651;-73
2021/11/03 03:15:19;;;;;;;;;15.00;9.33;;;;;12.01;71.99;99488.69;5036158;28;48139;-73
2021/11/03 03:17:44;;;;;;;;;13.33;10.00;;;;;12.04;71.97;99491.31;5036100;28;45872;-73
2021/11/03 03:20:10;;;;;;;;;12.67;8.67;;;;;12.04;72.02;99489.53;5036266;28;45483;-74
2021/11/03 03:22:35;;;;;;;;;9.00;8.67;;;;;12.00;72.10;99492.25;5036601;28;45338;-73
2021/11/03 03:25:01;;;;;;;;;10.00;9.67;;;;;11.96;72.14;99486.13;5036520;28;45362;-73
2021/11/03 03:27:26;;;;;;;;;13.00;8.00;;;;;12.00;72.19;99497.53;5036222;28;46680;-73
2021/11/03 03:29:52;;;;;;;;;11.33;9.67;;;;;11.99;72.14;99491.38;5036104;28;45573;-73
2021/11/03 03:32:17;;;;;;;;;11.67;9.00;;;;;11.97;71.88;99503.72;5036345;28;45243;-74
2021/11/03 03:34:43;;;;;;;;;8.00;8.00;;;;;11.92;71.77;99497.63;5036382;28;45503;-73
2021/11/03 03:37:08;;;;;;;;;9.00;9.00;;;;;11.94;72.17;99498.50;5036041;28;45522;-73
2021/11/03 03:39:34;;;;;;;;;11.33;8.33;;;;;11.94;72.14;99511.72;5035916;28;45333;-73
2021/11/03 03:42:08;;;;;;;;;9.33;9.00;;;;;11.90;72.20;99494.16;5036194;28;45430;-74
2021/11/03 03:44:34;;;;;;;;;10.67;9.00;;;;;11.91;72.26;99506.47;5036215;28;45360;-73
2021/11/03 03:46:59;;;;;;;;;10.33;9.00;;;;;11.92;72.19;99505.56;5036175;28;45405;-73
2021/11/03 03:49:25;;;;;;;;;11.33;10.00;;;;;11.92;72.08;99513.50;5035748;28;47706;-73
2021/11/03 03:51:51;;;;;;;;;7.00;7.00;;;;;11.88;72.08;99509.19;5036136;28;45304;-73
2021/11/03 03:54:16;;;;;;;;;8.00;4.67;;;;;11.92;72.21;99516.16;5036028;28;45650;-73
2021/11/03 03:56:41;;;;;;;;;13.67;8.33;;;;;11.92;72.25;99513.50;5035835;28;46507;-73
2021/11/03 03:59:07;;;;;;;;;10.33;10.33;;;;;11.90;72.05;99517.09;5035383;28;54809;-73
2021/11/03 04:01:32;;;;;;;;;10.00;10.00;;;;;11.87;72.13;99522.41;5035939;28;45327;-73
2021/11/03 04:03:58;;;;;;;;;13.67;10.00;;;;;11.87;72.38;99518.00;5035538;28;46128;-73
2021/11/03 04:06:23;;;;;;;;;10.67;10.00;;;;;11.83;72.12;99526.03;5035705;28;46349;-73
2021/11/03 04:08:49;;;;;;;;;10.33;10.00;;;;;11.86;72.25;99525.97;5035706;28;45410;-73
2021/11/03 04:11:14;;;;;;;;;13.33;9.33;;;;;11.81;72.19;99520.69;5037602;28;45306;-73
2021/11/03 04:13:40;;;;;;;;;9.67;9.00;;;;;11.82;72.08;99529.53;5039049;28;45445;-74
2021/11/03 04:16:05;;;;;;;;;12.33;11.00;;;;;11.79;72.16;99538.38;5039053;28;46366;-73
2021/11/03 04:18:31;;;;;;;;;10.33;10.33;;;;;11.75;72.25;99529.59;5038969;28;45242;-73
2021/11/03 04:20:56;;;;;;;;;18.00;15.00;;;;;11.79;72.09;99536.59;5039169;28;45388;-74
2021/11/03 04:23:22;;;;;;;;;14.33;11.67;;;;;11.80;72.09;99542.75;5039193;28;45672;-73
2021/11/03 04:25:47;;;;;;;;;14.33;12.00;;;;;11.76;72.17;99541.06;5038843;28;45758;-73
2021/11/03 04:28:13;;;;;;;;;12.67;11.33;;;;;11.79;72.21;99548.97;5038939;28;45537;-73
2021/11/03 04:30:39;;;;;;;;;15.00;11.00;;;;;11.79;72.43;99555.13;5038938;28;45452;-73
2021/11/03 04:33:04;;;;;;;;;17.33;15.33;;;;;11.79;72.48;99548.97;5038940;28;45342;-73
2021/11/03 04:35:30;;;;;;;;;13.67;12.33;;;;;11.79;72.34;99562.19;5037687;28;45671;-73
2021/11/03 04:37:55;;;;;;;;;16.00;13.67;;;;;11.74;72.36;99550.78;5038540;28;45281;-73
2021/11/03 04:40:21;;;;;;;;;16.00;10.33;;;;;11.77;72.44;99564.84;5038823;28;45325;-73
2021/11/03 04:42:47;;;;;;;;;14.00;10.33;;;;;11.72;72.46;99553.47;5038467;28;45504;-73
2021/11/03 04:45:13;;;;;;;;;20.00;15.00;;;;;11.77;72.52;99562.22;5038326;28;46743;-73
2021/11/03 04:47:38;;;;;;;;;13.00;11.00;;;;;11.78;72.21;99568.38;5036993;28;45441;-73
2021/11/03 04:50:05;;;;;;;;;16.33;14.00;;;;;11.73;72.40;99554.34;5037308;28;45484;-73
2021/11/03 04:52:31;;;;;;;;;18.67;17.00;;;;;11.70;72.48;99551.72;5038477;28;45421;-73
2021/11/03 04:54:56;;;;;;;;;15.50;13.75;;;;;11.75;72.19;99563.13;5037143;28;52310;-73
2021/11/03 04:57:22;;;;;;;;;15.67;11.67;;;;;11.76;72.14;99562.22;5038251;28;45461;-73
2021/11/03 04:59:48;;;;;;;;;16.00;14.67;;;;;11.76;72.28;99559.56;5038508;28;45312;-73
2021/11/03 05:02:13;;;;;;;;;14.33;14.33;;;;;11.72;72.33;99557.88;5038424;28;45413;-73
2021/11/03 05:04:38;;;;;;;;;13.67;13.67;;;;;11.75;72.36;99571.03;5038338;28;46281;-73
2021/11/03 05:07:05;;;;;;;;;20.67;16.00;;;;;11.76;72.37;99571.00;5038082;28;45364;-74
2021/11/03 05:09:30;;;;;;;;;18.33;15.33;;;;;11.75;72.47;99558.69;5038462;28;45327;-73
2021/11/03 05:11:55;;;;;;;;;17.67;17.67;;;;;11.75;72.41;99563.97;5038362;28;45634;-73
2021/11/03 05:14:21;;;;;;;;;18.75;17.50;;;;;11.75;72.56;99574.56;5037994;28;45620;-74
2021/11/03 05:16:46;;;;;;;;;17.00;17.00;;;;;11.75;72.43;99574.56;5037611;28;51907;-74
2021/11/03 05:19:32;;;;;;;;;21.00;14.33;;;;;11.76;72.58;99578.94;5038199;28;45395;-73
2021/11/03 05:21:58;;;;;;;;;17.00;15.67;;;;;11.77;72.37;99579.81;5036184;28;45603;-73
2021/11/03 05:24:23;;;;;;;;;23.00;18.00;;;;;11.78;72.50;99578.94;5037822;28;46510;-73
2021/11/03 05:26:49;;;;;;;;;20.25;18.25;;;;;11.78;72.28;99587.75;5037736;28;48527;-73
2021/11/03 05:29:15;;;;;;;;;22.00;17.00;;;;;11.78;72.61;99573.66;5038029;28;45248;-74
2021/11/03 05:31:41;;;;;;;;;23.75;20.25;;;;;11.77;72.15;99575.44;5038080;28;45437;-73
2021/11/03 05:34:07;;;;;;;;;19.33;18.00;;;;;11.72;72.20;99571.09;5037666;28;46416;-73
2021/11/03 05:36:32;;;;;;;;;20.67;17.67;;;;;11.77;72.18;99586.00;5038012;28;45627;-73
2021/11/03 05:39:06;;;;;;;;;21.00;19.50;;;;;11.74;72.01;99574.59;5037913;28;45259;-73
2021/11/03 05:41:37;;;;;;;;;21.50;19.25;;;;;11.75;72.30;99577.22;5037823;28;45420;-74
2021/11/03 05:44:03;;;;;;;;;24.00;17.67;;;;;11.74;72.29;99582.53;5037448;28;47262;-73
2021/11/03 05:46:34;;;;;;;;;21.75;19.75;;;;;11.74;72.06;99588.69;5037417;28;45233;-73
2021/11/03 05:49:03;;;;;;;;;20.50;18.00;;;;;11.72;72.29;99587.84;5037794;28;45393;-73
2021/11/03 05:51:28;;;;;;;;;23.75;19.50;;;;;11.69;72.31;99585.22;5037775;28;45480;-73
2021/11/03 05:53:54;;;;;;;;;20.25;17.75;;;;;11.67;72.18;99591.44;5037178;28;45661;-73
2021/11/03 05:56:19;;;;;;;;;19.50;18.75;;;;;11.64;72.58;99584.41;5037678;28;45454;-73
2021/11/03 05:58:44;;;;;;;;;21.00;18.25;;;;;11.64;72.41;99589.69;5037413;28;45595;-73
2021/11/03 06:01:10;;;;;;;;;18.67;17.00;;;;;11.65;72.17;99590.56;5037616;28;45397;-73
2021/11/03 06:03:35;;;;;;;;;25.00;21.00;;;;;11.63;72.17;99590.59;5036793;28;56746;-73
2021/11/03 06:06:01;;;;;;;;;23.00;20.50;;;;;11.63;72.35;99595.88;5037389;28;45377;-73
2021/11/03 06:08:26;;;;;;;;;23.50;20.00;;;;;11.62;72.19;99594.16;5037633;28;45477;-73
2021/11/03 06:10:53;;;;;;;;;12.67;12.67;;;;;11.63;72.30;99609.09;5037358;28;45418;-74
2021/11/03 06:13:20;;;;;;;;;24.75;18.25;;;;;11.63;72.30;99606.47;5037010;28;45772;-73
2021/11/03 06:15:45;;;;;;;;;27.00;19.75;;;;;11.59;72.43;99593.31;5037289;28;45432;-74
2021/11/03 06:18:11;;;;;;;;;22.67;20.00;;;;;11.64;72.30;99609.97;5037266;28;45452;-73
2021/11/03 06:20:36;;;;;;;;;26.00;21.25;;;;;11.63;72.12;99597.66;5036982;28;45342;-74
2021/11/03 06:23:02;;;;;;;;;15.50;11.25;;;;;11.57;72.09;99598.63;5036970;28;51041;-73
2021/11/03 06:25:28;;;;;;;;;26.67;22.00;;;;;11.55;72.14;99603.03;5036998;28;45317;-73
2021/11/03 06:27:54;;;;;;;;;22.00;17.67;;;;;11.57;72.22;99614.47;5037398;28;45266;-73
2021/11/03 06:30:22;;;;;;;;;18.00;16.00;;;;;11.57;72.22;99616.25;5037035;28;45222;-73
2021/11/03 06:32:47;;;;;;;;;25.50;20.00;;;;;11.57;71.98;99616.25;5036256;28;45551;-73
2021/11/03 06:35:13;;;;;;;;;19.00;18.50;;;;;11.52;72.09;99606.59;5035263;28;45354;-73
2021/11/03 06:37:39;;;;;;;;;22.00;17.50;;;;;11.55;72.28;99629.47;5036899;28;45258;-73
2021/11/03 06:40:05;;;;;;;;;23.75;17.00;;;;;11.55;72.23;99624.19;5036996;28;45500;-74
2021/11/03 06:42:31;;;;;;;;;19.00;16.33;;;;;11.55;72.00;99624.19;5036382;28;46640;-73
2021/11/03 06:44:56;;;;;;;;;21.33;17.00;;;;;11.52;72.23;99633.03;5036694;28;45466;-73
2021/11/03 06:47:22;;;;;;;;;19.00;16.75;;;;;11.51;72.11;99636.59;5036900;28;45273;-73
2021/11/03 06:49:47;;;;;;;;;3.67;0.67;;;;;11.52;72.13;99645.38;5037015;28;45344;-73
2021/11/03 06:52:13;;;;;;;;;20.50;17.75;;;;;11.52;72.18;99646.25;5036597;28;45719;-73
2021/11/03 06:54:38;;;;;;;;;18.00;15.67;;;;;11.52;72.00;99640.97;5036751;28;45459;-74
2021/11/03 06:57:04;;;;;;;;;15.67;15.00;;;;;11.51;71.94;99646.28;5036465;28;45826;-74
2021/11/03 06:59:29;;;;;;;;;21.33;16.00;;;;;11.47;71.94;99655.13;5036732;28;45312;-73
2021/11/03 07:01:55;;;;;;;;;15.00;13.00;;;;;11.42;72.09;99649.91;5036354;28;46720;-73
2021/11/03 07:04:20;;;;;;;;;16.33;13.67;;;;;11.36;72.08;99660.53;5036355;28;48873;-73
2021/11/03 07:06:46;;;;;;;;;18.00;14.67;;;;;11.37;71.94;99678.16;5036441;28;45206;-73
2021/11/03 07:09:11;;;;;;;;;21.00;15.00;;;;;11.38;72.21;99679.00;5036648;28;45318;-73
2021/11/03 07:11:37;;;;;;;;;12.00;11.00;;;;;11.37;71.96;99685.19;5036491;28;46091;-73
2021/11/03 07:14:02;;;;;;;;;19.50;16.00;;;;;11.32;72.10;99679.09;5034829;28;45543;-73
2021/11/03 07:16:28;;;;;;;;;15.67;14.33;;;;;11.24;71.90;99681.81;5036494;28;45374;-73
2021/11/03 07:18:53;;;;;;;;;14.00;14.00;;;;;11.20;71.94;99688.88;5036579;28;45254;-73
2021/11/03 07:21:18;;;;;;;;;21.67;13.67;;;;;11.16;72.11;99688.94;5035819;28;53709;-73
2021/11/03 07:23:44;;;;;;;;;16.25;14.00;;;;;11.10;71.89;99686.34;5036144;28;47773;-73
2021/11/03 07:26:11;;;;;;;;;23.50;20.25;;;;;11.11;72.06;99703.94;5036396;28;45400;-73
2021/11/03 07:28:36;;;;;;;;;20.50;18.50;;;;;11.08;71.84;99706.59;5036512;28;45299;-74
2021/11/03 07:31:03;;;;;;;;;22.50;19.75;;;;;11.07;71.91;99700.44;5036002;28;46616;-73
2021/11/03 07:33:29;;;;;;;;;15.67;14.00;;;;;11.12;71.94;99711.84;5036154;28;45530;-73
2021/11/03 07:35:54;;;;;;;;;20.75;16.75;;;;;11.13;72.10;99715.38;5036349;28;45194;-73
2021/11/03 07:38:20;;;;;;;;;15.25;15.25;;;;;11.14;71.93;99719.78;5036049;28;45413;-73
2021/11/03 07:40:49;;;;;;;;;19.00;17.50;;;;;11.09;71.88;99725.09;5036081;28;45629;-73
2021/11/03 07:43:16;;;;;;;;;15.67;15.00;;;;;10.96;71.58;99710.25;5035957;28;45304;-73
2021/11/03 07:45:42;;;;;;;;;20.25;17.00;;;;;11.00;71.77;99728.69;5038262;28;45485;-73
2021/11/03 07:48:08;;;;;;;;;20.75;16.50;;;;;10.94;71.97;99722.59;5039578;28;45448;-74
2021/11/03 07:50:37;;;;;;;;;22.25;17.75;;;;;10.95;72.04;99730.50;5039455;28;45736;-73
2021/11/03 07:53:02;;;;;;;;;16.75;15.25;;;;;10.95;72.08;99734.91;5039395;28;45224;-73
2021/11/03 07:55:28;;;;;;;;;20.00;16.25;;;;;10.95;71.86;99743.69;5039641;28;45267;-73
2021/11/03 07:57:53;;;;;;;;;19.75;16.75;;;;;10.95;71.75;99745.47;5039375;28;45658;-73
2021/11/03 08:00:29;;;;;;;;;23.00;18.75;;;;;10.88;71.63;99733.22;5039262;28;46870;-73
2021/11/03 08:02:55;;;;;;;;;23.00;21.00;;;;;10.86;71.65;99741.13;5039348;28;45377;-73
2021/11/03 08:05:21;;;;;;;;;22.50;17.00;;;;;10.85;71.88;99744.66;5039348;28;45398;-73
2021/11/03 08:07:46;;;;;;;;;20.25;19.00;;;;;10.84;71.87;99747.31;5039300;28;45671;-73
2021/11/03 08:10:18;;;;;;;;;19.75;17.25;;;;;10.82;71.93;99746.47;5038799;28;46472;-73
2021/11/03 08:12:44;;;;;;;;;26.25;21.25;;;;;10.80;72.00;99753.50;5039193;28;45647;-73
2021/11/03 08:15:10;;;;;;;;;27.25;18.75;;;;;10.79;72.02;99749.13;5037587;28;45247;-73
2021/11/03 08:17:36;;;;;;;;;16.75;16.75;;;;;10.80;71.87;99756.16;5039362;28;45602;-73
2021/11/03 08:20:03;;;;;;;;;21.50;18.00;;;;;10.79;71.76;99757.91;5038565;28;45592;-73
2021/11/03 08:22:29;;;;;;;;;27.25;22.75;;;;;10.75;71.73;99758.81;5021313;28;45799;-74
2021/11/03 08:24:55;;;;;;;;;28.75;22.75;;;;;10.79;71.81;99776.41;5039119;28;45311;-73
2021/11/03 08:27:22;;;;;;;;;18.00;18.00;;;;;10.82;71.79;99781.66;5039123;28;45513;-73
2021/11/03 08:29:48;;;;;;;;;24.50;20.00;;;;;10.84;71.85;99785.16;5038942;28;46131;-73
2021/11/03 08:32:14;;;;;;;;;21.25;16.00;;;;;10.88;71.87;99796.59;5038846;28;45334;-73
2021/11/03 08:34:39;;;;;;;;;23.75;19.75;;;;;10.89;71.57;99790.41;5037552;28;45406;-73
2021/11/03 08:37:07;;;;;;;;;23.25;21.25;;;;;10.90;72.08;99790.41;5038907;28;45377;-73
2021/11/03 08:39:33;;;;;;;;;22.75;18.25;;;;;10.98;71.65;99800.94;5037271;28;46764;-73
2021/11/03 08:41:59;;;;;;;;;17.25;16.50;;;;;11.00;71.33;99801.78;5037499;28;45302;-73
2021/11/03 08:44:25;;;;;;;;;20.75;20.00;;;;;11.02;71.15;99800.00;5038403;28;45405;-73
2021/11/03 08:46:51;;;;;;;;;23.50;16.75;;;;;11.00;71.34;99800.00;5038980;28;45423;-73
2021/11/03 08:49:16;;;;;;;;;21.25;20.75;;;;;10.98;71.25;99806.22;5037280;28;45406;-73
2021/11/03 08:51:42;;;;;;;;;22.75;17.25;;;;;10.96;71.25;99800.03;5038723;28;45316;-73
2021/11/03 08:54:08;;;;;;;;;26.50;22.75;;;;;10.95;71.14;99800.94;5037021;28;45821;-73
2021/11/03 08:56:35;;;;;;;;;24.25;20.00;;;;;10.95;71.06;99793.88;5037644;28;45207;-74
2021/11/03 08:59:03;;;;;;;;;18.25;17.00;;;;;10.98;71.27;99807.09;5038085;28;47516;-73
2021/11/03 09:01:29;;;;;;;;;17.50;16.00;;;;;10.99;71.60;99800.03;5038328;28;45298;-74
2021/11/03 09:03:54;;;;;;;;;22.00;16.25;;;;;11.15;71.30;99811.34;5036094;28;45513;-73
2021/11/03 09:06:20;;;;;;;;;18.50;16.00;;;;;11.28;71.06;99807.72;5037792;28;46789;-73
2021/11/03 09:08:47;;;;;;;;;14.75;12.75;;;;;11.39;70.71;99813.78;5037857;28;46100;-73
2021/11/03 09:11:13;;;;;;;;;28.50;23.25;;;;;11.51;70.68;99821.63;5036919;28;45474;-73
2021/11/03 09:13:38;;;;;;;;;29.50;23.00;;;;;11.60;70.50;99823.28;5037726;28;46002;-74
2021/11/03 09:16:04;;;;;;;;;25.50;22.25;;;;;11.67;70.29;99822.34;5038393;28;45364;-74
2021/11/03 09:18:29;;;;;;;;;26.75;22.50;;;;;11.72;69.72;99830.25;5038013;28;46401;-73
2021/11/03 09:20:55;;;;;;;;;31.50;22.00;;;;;11.71;69.99;99818.78;5037213;28;45336;-73
2021/11/03 09:23:21;;;;;;;;;27.50;23.00;;;;;11.61;69.72;99809.19;5037796;28;45499;-73
2021/11/03 09:25:46;;;;;;;;;26.25;23.75;;;;;11.57;69.90;99825.09;5038195;28;45404;-73
2021/11/03 09:28:12;;;;;;;;;25.50;22.00;;;;;11.55;70.26;99836.53;5037325;28;46385;-73
2021/11/03 09:30:37;;;;;;;;;22.25;21.25;;;;;11.55;69.50;99839.19;5037872;28;45389;-74
2021/11/03 09:33:05;;;;;;;;;22.75;19.75;;;;;11.58;70.26;99848.00;5037942;28;45279;-73
2021/11/03 09:35:33;;;;;;;;;22.00;18.00;;;;;11.61;70.41;99845.31;5037899;28;45464;-73
2021/11/03 09:37:59;;;;;;;;;20.75;19.00;;;;;11.55;70.03;99833.91;5037281;28;46148;-73
2021/11/03 09:40:52;;;;;;;;;21.00;18.67;;;;;11.70;69.81;99854.03;5037569;28;45335;-73
2021/11/03 09:43:40;;;;;;;;;22.33;19.00;;;;;11.67;69.94;99856.72;5030646;28;45596;-73
2021/11/03 09:46:19;;;;;;;;;25.00;20.00;;;;;11.63;69.83;99852.34;5033675;28;45362;-73
2021/11/03 09:48:46;;;;;;;;;21.00;17.67;;;;;11.61;69.98;99854.16;5037460;28;45535;-73
2021/11/03 09:51:16;;;;;;;;;20.75;20.75;;;;;11.57;69.90;99840.97;5020065;28;45442;-73
2021/11/03 09:53:50;;;;;;;;;23.50;20.75;;;;;11.59;69.79;99849.75;5037776;28;45299;-73
2021/11/03 09:56:17;;;;;;;;;17.00;16.67;;;;;11.66;69.91;99862.88;5037215;28;45716;-73
2021/11/03 09:58:57;;;;;;;;;31.00;21.33;;;;;11.61;69.75;99853.25;5037348;28;45687;-73
2021/11/03 10:01:25;;;;;;;;;24.25;17.25;;;;;11.67;69.78;99880.53;5036646;28;45487;-73
2021/11/03 10:04:16;;;;;;;;;28.50;21.25;;;;;11.64;69.69;99867.31;5037310;28;45402;-73
2021/11/03 10:06:58;;;;;;;;;21.50;20.50;;;;;11.64;69.98;99872.63;5037104;28;45405;-73
2021/11/03 10:09:23;;;;;;;;;20.67;17.67;;;;;11.67;69.98;99869.97;5067889;28;46478;-73
2021/11/03 10:11:49;;;;;;;;;24.50;17.25;;;;;11.61;69.78;99854.16;5037147;28;48977;-73
2021/11/03 10:14:15;;;;;;;;;17.33;17.00;;;;;11.70;69.95;99875.19;5037027;28;45480;-73
2021/11/03 10:16:42;;;;;;;;;14.67;13.00;;;;;11.68;69.87;99863.78;5037375;28;45346;-73
2021/11/03 10:19:14;;;;;;;;;20.33;17.67;;;;;11.75;69.98;99875.16;5036904;28;46798;-73
2021/11/03 10:21:58;;;;;;;;;19.67;16.67;;;;;11.75;70.12;99862.81;5032247;28;45338;-73
2021/11/03 10:24:29;;;;;;;;;21.00;17.00;;;;;11.76;69.69;99859.28;5037155;28;45527;-73
2021/11/03 10:26:57;;;;;;;;;22.67;14.00;;;;;11.83;69.68;99870.72;5036973;28;45330;-73
2021/11/03 10:29:35;;;;;;;;;21.33;17.00;;;;;11.87;69.76;99871.56;5036878;28;45723;-73
2021/11/03 10:32:06;;;;;;;;;23.00;19.00;;;;;11.91;69.70;99868.88;5036503;28;45365;-73
2021/11/03 10:34:35;;;;;;;;;20.33;16.00;;;;;11.92;69.90;99865.31;5036819;28;45341;-73
2021/11/03 10:37:09;;;;;;;;;16.67;15.33;;;;;11.98;69.92;99870.53;5037271;28;45333;-73
2021/11/03 10:39:55;;;;;;;;;16.00;15.00;;;;;12.02;69.78;99880.22;5036666;28;45733;-73
2021/11/03 10:42:36;;;;;;;;;14.00;14.00;;;;;12.07;69.99;99881.03;5034869;28;45378;-73
2021/11/03 10:45:23;;;;;;;;;17.33;16.33;;;;;12.15;69.58;99888.91;5036683;28;45388;-73
2021/11/03 10:47:52;;;;;;;;;20.33;16.00;;;;;12.17;69.52;99886.25;5036732;28;45395;-73
2021/11/03 10:50:30;;;;;;;;;15.67;15.67;;;;;12.22;69.48;99879.13;5036613;28;46244;-74
2021/11/03 10:53:10;;;;;;;;;16.67;15.00;;;;;12.34;69.71;99879.00;5033547;28;45394;-73
2021/11/03 10:55:46;;;;;;;;;17.33;16.67;;;;;12.54;69.52;99882.28;5035402;28;45384;-73
2021/11/03 10:58:11;;;;;;;;;12.67;12.67;;;;;12.70;69.18;99879.44;5036604;28;45330;-73
2021/11/03 11:00:39;;;;;;;;;16.67;15.00;;;;;12.80;68.69;99878.44;5036299;28;45298;-74
2021/11/03 11:03:10;;;;;;;;;18.33;13.00;;;;;12.95;68.60;99886.19;5034469;28;45472;-73
2021/11/03 11:05:36;;;;;;;;;15.67;11.33;;;;;13.03;68.13;99883.41;5035141;28;45536;-72
2021/11/03 11:08:17;;;;;;;;;18.33;14.00;;;;;13.06;68.26;99864.81;5051880;28;45559;-73
2021/11/03 11:10:51;;;;;;;;;17.00;15.67;;;;;13.25;67.68;99882.22;5034776;28;45773;-73
2021/11/03 11:15:52;;;;;;;;;15.33;12.00;;;;;13.39;67.55;99886.44;4965780;26;45403;-73
2021/11/03 11:18:46;;;;;;;;;17.67;15.00;;;;;13.42;67.45;99881.94;5016096;28;45326;-73
2021/11/03 11:21:22;;;;;;;;;16.67;13.00;;;;;13.46;67.26;99883.66;5020749;28;45485;-73
2021/11/03 11:23:55;;;;;;;;;14.33;11.33;;;;;13.51;67.11;99881.81;5017960;28;45332;-73